Flight Track Log - Related Links

Times and Time Zones

All times are in EDT time to prevent confusion due to time zone crossing. See the SWA2182 flight status page for this flight to view local times or setup timezone preferences in your user account.

Time Position Orientation Groundspeed Altitude Reporting Facility
EDT Latitude Longitude Course Direction KTS MPH feet Rate Location/Type
Fri 09:08:48 AM 38.6500 -121.5833 109° East 177 204 1,600  Level Northern Cal TRACON
Fri 09:09:54 AM 38.6167 -121.5167 123° Southeast 240 276 4,200 2,619 Climbing Northern Cal TRACON
Fri 09:10:54 AM 38.5833 -121.4333 117° Southeast 269 310 7,100 2,286 Climbing Northern Cal TRACON
Fri 09:12:00 AM 38.5333 -121.3333 123° Southeast 295 339 9,000 1,482 Climbing Northern Cal TRACON
Fri 09:12:19 AM 38.5211 -121.3047 119° Southeast 296 341 9,200 1,975 Climbing Oakland Center
Fri 09:13:19 AM 38.4778 -121.2103 120° Southeast 307 353 11,600 2,628 Climbing Oakland Center
Fri 09:14:00 AM 38.3011 -120.9604 109° East  Level FlightAware Approximate
Fri 09:14:20 AM 38.4264 -121.1006 121° Southeast 348 400 14,500  Level Oakland Center
Fri 09:15:20 AM 38.3731 -120.9853 121° Southeast 372 428 17,500 2,975 Climbing Oakland Center
Fri 09:16:21 AM 38.3167 -120.8633 120° Southeast 393 452 20,500 2,727 Climbing Oakland Center
Fri 09:17:21 AM 38.2578 -120.7369 121° Southeast 408 470 23,000 2,430 Climbing Oakland Center
Fri 09:18:22 AM 38.1756 -120.6253 133° Southeast 428 493 25,400 2,231 Climbing Oakland Center
Fri 09:19:22 AM 38.0792 -120.5300 142° Southeast 436 502 27,500 1,934 Climbing Oakland Center
Fri 09:20:23 AM 37.9781 -120.4328 143° Southeast 449 517 29,300 1,736 Climbing Oakland Center
Fri 09:21:23 AM 37.8739 -120.3342 143° Southeast 461 531 31,000 1,736 Climbing Oakland Center
Fri 09:22:24 AM 37.7692 -120.2314 142° Southeast 472 543 32,800 1,785 Climbing Oakland Center
Fri 09:23:24 AM 37.6639 -120.1303 143° Southeast 473 544 34,600 1,587 Climbing Oakland Center
Fri 09:24:25 AM 37.5553 -120.0306 144° Southeast 484 557 36,000 1,328 Climbing Oakland Center
Fri 09:25:26 AM 37.4486 -119.9322 144° Southeast 478 550 37,300 1,240 Climbing Oakland Center
Fri 09:26:26 AM 37.3256 -119.8742 159° South 470 541 38,500 843 Climbing Oakland Center
Fri 09:27:27 AM 37.1844 -119.8114 160° South 467 537 39,000 246 Climbing Oakland Center
Fri 09:28:28 AM 37.0675 -119.7583 160° South 463 533 39,000  Level Oakland Center
Fri 09:29:28 AM 36.9461 -119.7042 160° South 462 532 39,000  Level Oakland Center
Fri 09:30:29 AM 36.8264 -119.6494 160° South 458 527 39,000  Level Oakland Center
Fri 09:31:30 AM 36.7047 -119.5981 161° South 460 529 39,000  Level Oakland Center
Fri 09:32:31 AM 36.5842 -119.5436 160° South 460 529 39,000  Level Oakland Center
Fri 09:33:31 AM 36.4642 -119.4906 160° South 460 529 39,000  Level Oakland Center
Fri 09:34:32 AM 36.3442 -119.4389 161° South 457 526 39,000  Level Oakland Center
Fri 09:35:33 AM 36.2228 -119.3867 161° South 459 528 39,000  Level Oakland Center
Fri 09:36:34 AM 36.1025 -119.3358 161° South 458 527 39,000  Level Oakland Center
Fri 09:37:35 AM 35.9822 -119.2847 161° South 458 527 39,000  Level Oakland Center
Fri 09:38:36 AM 35.8642 -119.2356 161° South 448 516 39,000  Level Oakland Center
Fri 09:39:37 AM 35.7428 -119.1833 161° South 456 525 39,000  Level Oakland Center
Fri 09:40:38 AM 35.6219 -119.1322 161° South 454 522 39,000  Level Los Angeles Center
Fri 09:41:39 AM 35.4994 -119.0808 161° South 460 529 39,000  Level Los Angeles Center
Fri 09:42:40 AM 35.3525 -119.0194 161° South 463 533 39,000  Level Los Angeles Center
Fri 09:43:42 AM 35.2283 -118.9669 161° South 469 540 39,000  Level Los Angeles Center
Fri 09:44:43 AM 35.1044 -118.9150 161° South 470 541 39,000  Level Los Angeles Center
Fri 09:45:45 AM 34.9800 -118.8631 161° South 471 542 39,000  Level Los Angeles Center
Fri 09:46:46 AM 34.8606 -118.8147 162° South 471 542 39,000  Level Los Angeles Center
Fri 09:47:48 AM 34.7375 -118.7642 161° South 469 540 39,000  Level Los Angeles Center
Fri 09:48:49 AM 34.6144 -118.7128 161° South 467 537 39,000  Level Los Angeles Center
Fri 09:49:51 AM 34.4667 -118.6525 161° South 467 537 39,000  Level Los Angeles Center
Fri 09:50:52 AM 34.3439 -118.6019 161° South 466 536 39,000  Level Los Angeles Center
Fri 09:51:54 AM 34.2217 -118.5511 161° South 466 536 39,000  Level Los Angeles Center
Fri 09:52:55 AM 34.0989 -118.5008 161° South 468 539 39,000 -829 Level Los Angeles Center
Fri 09:53:57 AM 33.9775 -118.4508 161° South 462 532 37,300 -2,293 Descending Los Angeles Center
Fri 09:54:58 AM 33.8761 -118.3572 143° Southeast 469 540 34,300 -2,927 Descending Los Angeles Center
Fri 09:56:00 AM 33.7706 -118.2300 135° Southeast 469 540 31,300 -2,341 Descending Los Angeles Center
Fri 09:57:01 AM 33.6939 -118.1244 131° Southeast 461 531 29,500 -2,049 Descending Los Angeles Center
Fri 09:58:03 AM 33.6111 -118.0208 134° Southeast 437 503 27,100 -2,195 Descending Los Angeles Center
Fri 09:59:04 AM 33.5317 -117.9186 133° Southeast 423 487 25,000 -2,000 Descending Los Angeles Center
Fri 10:00:06 AM 33.4556 -117.8228 134° Southeast 406 467 23,000 -2,177 Descending Los Angeles Center
Fri 10:01:08 AM 33.3636 -117.7067 133° Southeast 402 463 20,500 -2,238 Descending Los Angeles Center
Fri 10:02:12 AM 33.2833 -117.6000 132° Southeast 397 457 18,300 -2,136 Descending Southern California TRACON
Fri 10:03:06 AM 33.2000 -117.5333 146° Southeast 396 456 16,300 -2,000 Descending Southern California TRACON
Fri 10:04:12 AM 33.1167 -117.4500 140° Southeast 378 435 14,300 -1,900 Descending Southern California TRACON
Fri 10:05:06 AM 33.0333 -117.3833 146° Southeast 362 417 12,500 -1,800 Descending Southern California TRACON
Fri 10:06:12 AM 32.9500 -117.3167 146° Southeast 338 389 10,700 -1,250 Descending Southern California TRACON
Fri 10:07:06 AM 32.8833 -117.2667 148° Southeast 301 346 10,000 -769 Descending Southern California TRACON
Fri 10:07:30 AM 32.8683 -117.2544 146° Southeast 320 368 9,700 -1,482 Descending Los Angeles Center
Fri 10:08:31 AM 32.8292 -117.1456 113° Southeast 312 359 7,900 -1,647 Descending Los Angeles Center
Fri 10:09:12 AM 32.8000 -117.0833 119° Southeast 300 345 6,900 -1,375 Descending Southern California TRACON
Fri 10:10:07 AM 32.7667 -117.0000 115° Southeast 297 342 5,700 -1,240 Descending Southern California TRACON
Fri 10:11:13 AM 32.7000 -116.9667 157° South 271 312 4,400 -1,381 Descending Southern California TRACON
Fri 10:12:13 AM 32.6833 -117.0167 248° West 194 223 2,800 -1,350 Descending Southern California TRACON
Fri 10:13:13 AM 32.7000 -117.0667 292° West 155 178 1,700 -800 Descending Southern California TRACON
Fri 10:14:13 AM 32.7167 -117.1167 292° West 148 170 1,200 -477 Descending Southern California TRACON
Fri 10:14:41 AM 32.7192 -117.1325 281° West 149 171 1,000 -667 Descending Los Angeles Center
Fri 10:15:43 AM 32.7322 -117.1808 288° West 146 168 200 -774 Descending Los Angeles Center

Login

Don't have an account? Register now (free) for customized features, flight alerts, and more!